sensor_id;sensor_type;location;lat;lon;timestamp;P1;durP1;ratioP1;P2;durP2;ratioP2
73980;SDS011;62348;51.412;5.436;2023-07-29T00:00:39;7.45;;;3.90;;
73980;SDS011;62348;51.412;5.436;2023-07-29T00:03:05;7.57;;;3.80;;
73980;SDS011;62348;51.412;5.436;2023-07-29T00:05:30;6.78;;;4.03;;
73980;SDS011;62348;51.412;5.436;2023-07-29T00:07:56;6.97;;;4.20;;
73980;SDS011;62348;51.412;5.436;2023-07-29T00:10:21;6.80;;;3.65;;
73980;SDS011;62348;51.412;5.436;2023-07-29T00:12:47;8.38;;;4.30;;
73980;SDS011;62348;51.412;5.436;2023-07-29T00:15:12;7.90;;;3.72;;
73980;SDS011;62348;51.412;5.436;2023-07-29T00:17:37;5.22;;;3.40;;
73980;SDS011;62348;51.412;5.436;2023-07-29T00:20:03;9.35;;;4.28;;
73980;SDS011;62348;51.412;5.436;2023-07-29T00:22:30;9.52;;;3.92;;
73980;SDS011;62348;51.412;5.436;2023-07-29T00:24:55;6.05;;;4.60;;
73980;SDS011;62348;51.412;5.436;2023-07-29T00:27:22;6.57;;;4.15;;
73980;SDS011;62348;51.412;5.436;2023-07-29T00:29:47;5.38;;;4.55;;
73980;SDS011;62348;51.412;5.436;2023-07-29T00:32:13;7.40;;;4.03;;
73980;SDS011;62348;51.412;5.436;2023-07-29T00:34:38;6.68;;;4.72;;
73980;SDS011;62348;51.412;5.436;2023-07-29T00:37:04;6.45;;;4.15;;
73980;SDS011;62348;51.412;5.436;2023-07-29T00:39:31;5.03;;;4.45;;
73980;SDS011;62348;51.412;5.436;2023-07-29T00:41:56;7.63;;;4.32;;
73980;SDS011;62348;51.412;5.436;2023-07-29T00:44:22;6.10;;;4.57;;
73980;SDS011;62348;51.412;5.436;2023-07-29T00:46:47;6.63;;;4.80;;
73980;SDS011;62348;51.412;5.436;2023-07-29T00:49:15;6.00;;;4.50;;
73980;SDS011;62348;51.412;5.436;2023-07-29T00:51:41;4.32;;;3.92;;
73980;SDS011;62348;51.412;5.436;2023-07-29T00:54:06;5.50;;;4.20;;
73980;SDS011;62348;51.412;5.436;2023-07-29T00:56:32;6.68;;;4.32;;
73980;SDS011;62348;51.412;5.436;2023-07-29T00:58:57;7.85;;;4.78;;
73980;SDS011;62348;51.412;5.436;2023-07-29T01:01:27;5.18;;;4.28;;
73980;SDS011;62348;51.412;5.436;2023-07-29T01:03:53;5.63;;;4.00;;
73980;SDS011;62348;51.412;5.436;2023-07-29T01:09:40;7.28;;;4.78;;
73980;SDS011;62348;51.412;5.436;2023-07-29T01:12:20;6.40;;;4.35;;
73980;SDS011;62348;51.412;5.436;2023-07-29T01:15:01;6.47;;;4.32;;
73980;SDS011;62348;51.412;5.436;2023-07-29T01:17:54;5.47;;;4.63;;
73980;SDS011;62348;51.412;5.436;2023-07-29T01:20:32;4.72;;;4.03;;
73980;SDS011;62348;51.412;5.436;2023-07-29T01:22:59;5.20;;;3.97;;
73980;SDS011;62348;51.412;5.436;2023-07-29T01:25:24;6.80;;;3.92;;
73980;SDS011;62348;51.412;5.436;2023-07-29T01:27:50;6.45;;;3.67;;
73980;SDS011;62348;51.412;5.436;2023-07-29T01:30:20;4.93;;;4.28;;
73980;SDS011;62348;51.412;5.436;2023-07-29T01:38:19;6.15;;;3.30;;
73980;SDS011;62348;51.412;5.436;2023-07-29T01:40:53;6.10;;;3.90;;
73980;SDS011;62348;51.412;5.436;2023-07-29T01:43:21;4.78;;;3.60;;
73980;SDS011;62348;51.412;5.436;2023-07-29T01:45:48;3.65;;;2.92;;
73980;SDS011;62348;51.412;5.436;2023-07-29T01:48:14;4.03;;;3.25;;
73980;SDS011;62348;51.412;5.436;2023-07-29T01:50:40;6.22;;;3.88;;
73980;SDS011;62348;51.412;5.436;2023-07-29T01:53:05;8.60;;;4.15;;
73980;SDS011;62348;51.412;5.436;2023-07-29T01:55:30;5.30;;;4.53;;
73980;SDS011;62348;51.412;5.436;2023-07-29T01:57:56;6.47;;;4.85;;
73980;SDS011;62348;51.412;5.436;2023-07-29T02:00:21;6.32;;;4.30;;
73980;SDS011;62348;51.412;5.436;2023-07-29T02:02:46;5.57;;;4.70;;
73980;SDS011;62348;51.412;5.436;2023-07-29T02:05:12;7.80;;;4.72;;
73980;SDS011;62348;51.412;5.436;2023-07-29T02:07:37;5.30;;;4.63;;
73980;SDS011;62348;51.412;5.436;2023-07-29T02:10:03;6.63;;;4.80;;
73980;SDS011;62348;51.412;5.436;2023-07-29T02:12:29;7.72;;;5.05;;
73980;SDS011;62348;51.412;5.436;2023-07-29T02:14:54;6.68;;;5.25;;
73980;SDS011;62348;51.412;5.436;2023-07-29T02:17:19;6.78;;;5.15;;
73980;SDS011;62348;51.412;5.436;2023-07-29T02:19:46;6.35;;;5.05;;
73980;SDS011;62348;51.412;5.436;2023-07-29T02:22:14;8.80;;;5.30;;
73980;SDS011;62348;51.412;5.436;2023-07-29T02:24:41;8.43;;;5.05;;
73980;SDS011;62348;51.412;5.436;2023-07-29T02:27:07;7.68;;;5.80;;
73980;SDS011;62348;51.412;5.436;2023-07-29T02:29:32;6.82;;;5.35;;
73980;SDS011;62348;51.412;5.436;2023-07-29T02:31:58;7.03;;;5.20;;
73980;SDS011;62348;51.412;5.436;2023-07-29T02:34:24;6.43;;;5.10;;
73980;SDS011;62348;51.412;5.436;2023-07-29T02:36:49;6.57;;;4.47;;
73980;SDS011;62348;51.412;5.436;2023-07-29T02:39:15;6.10;;;4.68;;
73980;SDS011;62348;51.412;5.436;2023-07-29T02:41:40;6.45;;;4.45;;
73980;SDS011;62348;51.412;5.436;2023-07-29T02:44:06;6.43;;;3.88;;
73980;SDS011;62348;51.412;5.436;2023-07-29T02:46:31;7.15;;;4.65;;
73980;SDS011;62348;51.412;5.436;2023-07-29T02:48:57;5.93;;;4.30;;
73980;SDS011;62348;51.412;5.436;2023-07-29T02:51:22;5.30;;;3.88;;
73980;SDS011;62348;51.412;5.436;2023-07-29T02:53:47;6.63;;;4.82;;
73980;SDS011;62348;51.412;5.436;2023-07-29T02:56:13;6.45;;;4.55;;
73980;SDS011;62348;51.412;5.436;2023-07-29T02:58:38;6.32;;;4.40;;
73980;SDS011;62348;51.412;5.436;2023-07-29T03:01:04;5.63;;;3.88;;
73980;SDS011;62348;51.412;5.436;2023-07-29T03:03:31;6.35;;;4.10;;
73980;SDS011;62348;51.412;5.436;2023-07-29T03:06:04;6.72;;;3.72;;
73980;SDS011;62348;51.412;5.436;2023-07-29T03:08:32;8.25;;;3.88;;
73980;SDS011;62348;51.412;5.436;2023-07-29T03:10:57;4.38;;;3.65;;
73980;SDS011;62348;51.412;5.436;2023-07-29T03:13:23;5.70;;;3.58;;
73980;SDS011;62348;51.412;5.436;2023-07-29T03:15:49;3.58;;;3.28;;
73980;SDS011;62348;51.412;5.436;2023-07-29T03:18:15;4.00;;;3.60;;
73980;SDS011;62348;51.412;5.436;2023-07-29T03:20:41;7.25;;;3.45;;
73980;SDS011;62348;51.412;5.436;2023-07-29T03:23:06;4.68;;;3.47;;
73980;SDS011;62348;51.412;5.436;2023-07-29T03:25:32;4.43;;;3.35;;
73980;SDS011;62348;51.412;5.436;2023-07-29T03:27:58;4.70;;;3.85;;
73980;SDS011;62348;51.412;5.436;2023-07-29T03:30:23;4.55;;;3.70;;
73980;SDS011;62348;51.412;5.436;2023-07-29T03:32:49;4.70;;;3.47;;
73980;SDS011;62348;51.412;5.436;2023-07-29T03:35:14;6.03;;;3.60;;
73980;SDS011;62348;51.412;5.436;2023-07-29T03:37:40;6.47;;;3.97;;
73980;SDS011;62348;51.412;5.436;2023-07-29T03:40:06;4.43;;;3.83;;
73980;SDS011;62348;51.412;5.436;2023-07-29T03:42:32;4.47;;;3.33;;
73980;SDS011;62348;51.412;5.436;2023-07-29T03:44:58;4.07;;;3.65;;
73980;SDS011;62348;51.412;5.436;2023-07-29T03:47:23;6.68;;;3.88;;
73980;SDS011;62348;51.412;5.436;2023-07-29T03:49:49;4.68;;;3.33;;
73980;SDS011;62348;51.412;5.436;2023-07-29T03:52:15;4.22;;;3.50;;
73980;SDS011;62348;51.412;5.436;2023-07-29T03:54:40;6.35;;;3.38;;
73980;SDS011;62348;51.412;5.436;2023-07-29T03:57:06;6.35;;;3.40;;
73980;SDS011;62348;51.412;5.436;2023-07-29T03:59:31;3.78;;;3.10;;
73980;SDS011;62348;51.412;5.436;2023-07-29T04:01:57;6.45;;;3.13;;
73980;SDS011;62348;51.412;5.436;2023-07-29T04:04:22;4.05;;;3.17;;
73980;SDS011;62348;51.412;5.436;2023-07-29T04:06:48;3.83;;;3.28;;
73980;SDS011;62348;51.412;5.436;2023-07-29T04:09:13;3.40;;;3.10;;
73980;SDS011;62348;51.412;5.436;2023-07-29T04:11:38;3.80;;;3.05;;
73980;SDS011;62348;51.412;5.436;2023-07-29T04:14:04;3.58;;;3.08;;
73980;SDS011;62348;51.412;5.436;2023-07-29T04:16:29;4.47;;;3.10;;
73980;SDS011;62348;51.412;5.436;2023-07-29T04:18:55;3.20;;;2.90;;
73980;SDS011;62348;51.412;5.436;2023-07-29T04:21:20;5.38;;;3.47;;
73980;SDS011;62348;51.412;5.436;2023-07-29T04:23:45;3.67;;;2.92;;
73980;SDS011;62348;51.412;5.436;2023-07-29T04:26:11;6.03;;;3.10;;
73980;SDS011;62348;51.412;5.436;2023-07-29T04:28:36;6.07;;;3.45;;
73980;SDS011;62348;51.412;5.436;2023-07-29T04:31:02;3.97;;;3.25;;
73980;SDS011;62348;51.412;5.436;2023-07-29T04:33:29;4.03;;;2.80;;
73980;SDS011;62348;51.412;5.436;2023-07-29T04:35:55;4.60;;;2.35;;
73980;SDS011;62348;51.412;5.436;2023-07-29T04:38:20;3.05;;;2.75;;
73980;SDS011;62348;51.412;5.436;2023-07-29T04:40:48;4.53;;;2.92;;
73980;SDS011;62348;51.412;5.436;2023-07-29T04:43:14;2.97;;;2.55;;
73980;SDS011;62348;51.412;5.436;2023-07-29T04:45:43;5.63;;;3.08;;
73980;SDS011;62348;51.412;5.436;2023-07-29T04:48:08;3.00;;;2.47;;
73980;SDS011;62348;51.412;5.436;2023-07-29T04:50:34;3.42;;;2.67;;
73980;SDS011;62348;51.412;5.436;2023-07-29T04:52:59;4.63;;;2.60;;
73980;SDS011;62348;51.412;5.436;2023-07-29T04:55:24;3.60;;;2.88;;
73980;SDS011;62348;51.412;5.436;2023-07-29T04:57:50;6.80;;;2.90;;
73980;SDS011;62348;51.412;5.436;2023-07-29T05:00:15;6.03;;;2.35;;
73980;SDS011;62348;51.412;5.436;2023-07-29T05:02:41;5.75;;;2.47;;
73980;SDS011;62348;51.412;5.436;2023-07-29T05:05:06;2.70;;;2.25;;
73980;SDS011;62348;51.412;5.436;2023-07-29T05:07:33;2.88;;;2.25;;
73980;SDS011;62348;51.412;5.436;2023-07-29T05:09:58;2.55;;;2.20;;
73980;SDS011;62348;51.412;5.436;2023-07-29T05:12:24;5.28;;;2.33;;
73980;SDS011;62348;51.412;5.436;2023-07-29T05:14:49;4.00;;;2.70;;
73980;SDS011;62348;51.412;5.436;2023-07-29T05:17:14;3.08;;;2.58;;
73980;SDS011;62348;51.412;5.436;2023-07-29T05:19:40;3.63;;;2.50;;
73980;SDS011;62348;51.412;5.436;2023-07-29T05:22:05;4.40;;;2.13;;
73980;SDS011;62348;51.412;5.436;2023-07-29T05:24:30;2.30;;;2.08;;
73980;SDS011;62348;51.412;5.436;2023-07-29T05:26:56;2.22;;;1.98;;
73980;SDS011;62348;51.412;5.436;2023-07-29T05:29:21;3.15;;;2.30;;
73980;SDS011;62348;51.412;5.436;2023-07-29T05:31:47;2.25;;;2.05;;
73980;SDS011;62348;51.412;5.436;2023-07-29T05:34:12;4.47;;;2.13;;
73980;SDS011;62348;51.412;5.436;2023-07-29T05:36:37;3.22;;;2.55;;
73980;SDS011;62348;51.412;5.436;2023-07-29T05:39:04;4.78;;;1.67;;
73980;SDS011;62348;51.412;5.436;2023-07-29T05:41:29;4.10;;;2.10;;
73980;SDS011;62348;51.412;5.436;2023-07-29T05:43:55;2.78;;;2.47;;
73980;SDS011;62348;51.412;5.436;2023-07-29T05:46:20;2.75;;;2.50;;
73980;SDS011;62348;51.412;5.436;2023-07-29T05:48:45;3.45;;;3.15;;
73980;SDS011;62348;51.412;5.436;2023-07-29T05:51:11;3.30;;;2.53;;
73980;SDS011;62348;51.412;5.436;2023-07-29T05:53:36;4.30;;;2.25;;
73980;SDS011;62348;51.412;5.436;2023-07-29T05:56:01;3.90;;;2.63;;
73980;SDS011;62348;51.412;5.436;2023-07-29T05:58:27;3.92;;;2.70;;
73980;SDS011;62348;51.412;5.436;2023-07-29T06:00:53;5.53;;;2.70;;
73980;SDS011;62348;51.412;5.436;2023-07-29T06:03:18;4.60;;;2.45;;
73980;SDS011;62348;51.412;5.436;2023-07-29T06:05:43;3.17;;;2.80;;
73980;SDS011;62348;51.412;5.436;2023-07-29T06:08:09;3.20;;;2.35;;
73980;SDS011;62348;51.412;5.436;2023-07-29T06:10:34;2.83;;;2.35;;
73980;SDS011;62348;51.412;5.436;2023-07-29T06:13:00;3.22;;;2.67;;
73980;SDS011;62348;51.412;5.436;2023-07-29T06:15:25;4.60;;;2.58;;
73980;SDS011;62348;51.412;5.436;2023-07-29T06:17:50;2.78;;;1.90;;
73980;SDS011;62348;51.412;5.436;2023-07-29T06:20:16;2.67;;;2.20;;
73980;SDS011;62348;51.412;5.436;2023-07-29T06:22:41;3.58;;;2.67;;
73980;SDS011;62348;51.412;5.436;2023-07-29T06:25:08;4.18;;;1.88;;
73980;SDS011;62348;51.412;5.436;2023-07-29T06:27:33;2.17;;;1.73;;
73980;SDS011;62348;51.412;5.436;2023-07-29T06:29:58;2.92;;;1.85;;
73980;SDS011;62348;51.412;5.436;2023-07-29T06:32:24;3.78;;;2.10;;
73980;SDS011;62348;51.412;5.436;2023-07-29T06:34:49;3.17;;;1.70;;
73980;SDS011;62348;51.412;5.436;2023-07-29T06:37:16;2.72;;;1.88;;
73980;SDS011;62348;51.412;5.436;2023-07-29T06:39:42;2.00;;;1.80;;
73980;SDS011;62348;51.412;5.436;2023-07-29T06:42:07;4.53;;;1.60;;
73980;SDS011;62348;51.412;5.436;2023-07-29T06:44:33;3.13;;;1.77;;
73980;SDS011;62348;51.412;5.436;2023-07-29T06:46:58;3.47;;;2.35;;
73980;SDS011;62348;51.412;5.436;2023-07-29T06:49:23;1.60;;;1.50;;
73980;SDS011;62348;51.412;5.436;2023-07-29T06:51:49;3.45;;;1.80;;
73980;SDS011;62348;51.412;5.436;2023-07-29T06:54:16;3.83;;;1.85;;
73980;SDS011;62348;51.412;5.436;2023-07-29T06:56:41;2.40;;;1.58;;
73980;SDS011;62348;51.412;5.436;2023-07-29T06:59:07;5.60;;;2.10;;
73980;SDS011;62348;51.412;5.436;2023-07-29T07:01:32;3.50;;;1.80;;
73980;SDS011;62348;51.412;5.436;2023-07-29T07:03:57;2.88;;;2.00;;
73980;SDS011;62348;51.412;5.436;2023-07-29T07:06:23;6.80;;;2.42;;
73980;SDS011;62348;51.412;5.436;2023-07-29T07:08:49;2.63;;;1.90;;
73980;SDS011;62348;51.412;5.436;2023-07-29T07:11:15;3.08;;;1.70;;
73980;SDS011;62348;51.412;5.436;2023-07-29T07:13:41;2.95;;;1.40;;
73980;SDS011;62348;51.412;5.436;2023-07-29T07:16:06;3.20;;;1.70;;
73980;SDS011;62348;51.412;5.436;2023-07-29T07:18:31;1.92;;;1.65;;
73980;SDS011;62348;51.412;5.436;2023-07-29T07:20:57;2.65;;;1.60;;
73980;SDS011;62348;51.412;5.436;2023-07-29T07:23:22;2.45;;;1.58;;
73980;SDS011;62348;51.412;5.436;2023-07-29T07:25:48;3.60;;;1.70;;
73980;SDS011;62348;51.412;5.436;2023-07-29T07:28:13;2.53;;;1.73;;
73980;SDS011;62348;51.412;5.436;2023-07-29T07:30:41;2.25;;;1.70;;
73980;SDS011;62348;51.412;5.436;2023-07-29T07:33:07;2.78;;;1.23;;
73980;SDS011;62348;51.412;5.436;2023-07-29T07:35:32;1.48;;;1.00;;
73980;SDS011;62348;51.412;5.436;2023-07-29T07:37:58;1.58;;;1.20;;
73980;SDS011;62348;51.412;5.436;2023-07-29T07:40:24;2.20;;;1.13;;
73980;SDS011;62348;51.412;5.436;2023-07-29T07:42:50;2.47;;;1.52;;
73980;SDS011;62348;51.412;5.436;2023-07-29T07:45:15;1.38;;;1.10;;
73980;SDS011;62348;51.412;5.436;2023-07-29T07:47:42;1.67;;;1.20;;
73980;SDS011;62348;51.412;5.436;2023-07-29T07:50:08;2.40;;;1.50;;
73980;SDS011;62348;51.412;5.436;2023-07-29T07:52:33;1.50;;;1.20;;
73980;SDS011;62348;51.412;5.436;2023-07-29T07:54:59;1.48;;;1.20;;
73980;SDS011;62348;51.412;5.436;2023-07-29T07:57:24;1.75;;;1.40;;
73980;SDS011;62348;51.412;5.436;2023-07-29T07:59:49;3.15;;;1.20;;
73980;SDS011;62348;51.412;5.436;2023-07-29T08:02:17;2.58;;;1.50;;
73980;SDS011;62348;51.412;5.436;2023-07-29T08:04:43;2.88;;;1.55;;
73980;SDS011;62348;51.412;5.436;2023-07-29T08:07:08;1.67;;;1.10;;
73980;SDS011;62348;51.412;5.436;2023-07-29T08:09:34;8.80;;;2.00;;
73980;SDS011;62348;51.412;5.436;2023-07-29T08:11:59;3.10;;;1.40;;
73980;SDS011;62348;51.412;5.436;2023-07-29T08:14:25;1.67;;;1.40;;
73980;SDS011;62348;51.412;5.436;2023-07-29T08:16:51;3.00;;;1.30;;
73980;SDS011;62348;51.412;5.436;2023-07-29T08:19:17;1.95;;;1.20;;
73980;SDS011;62348;51.412;5.436;2023-07-29T08:21:42;1.95;;;1.85;;
73980;SDS011;62348;51.412;5.436;2023-07-29T08:24:07;1.80;;;1.13;;
73980;SDS011;62348;51.412;5.436;2023-07-29T08:26:33;5.18;;;1.65;;
73980;SDS011;62348;51.412;5.436;2023-07-29T08:28:58;1.58;;;1.38;;
73980;SDS011;62348;51.412;5.436;2023-07-29T08:31:23;2.80;;;1.33;;
73980;SDS011;62348;51.412;5.436;2023-07-29T08:33:49;3.05;;;1.10;;
73980;SDS011;62348;51.412;5.436;2023-07-29T08:36:14;1.60;;;1.30;;
73980;SDS011;62348;51.412;5.436;2023-07-29T08:38:40;3.63;;;1.65;;
73980;SDS011;62348;51.412;5.436;2023-07-29T08:43:43;3.10;;;1.23;;
73980;SDS011;62348;51.412;5.436;2023-07-29T08:46:15;1.70;;;1.20;;
73980;SDS011;62348;51.412;5.436;2023-07-29T08:48:42;6.22;;;1.25;;
73980;SDS011;62348;51.412;5.436;2023-07-29T08:51:09;2.35;;;1.30;;
73980;SDS011;62348;51.412;5.436;2023-07-29T08:53:36;1.88;;;0.98;;
73980;SDS011;62348;51.412;5.436;2023-07-29T08:56:02;1.67;;;1.30;;
73980;SDS011;62348;51.412;5.436;2023-07-29T08:58:28;3.53;;;1.95;;
73980;SDS011;62348;51.412;5.436;2023-07-29T09:00:54;1.27;;;1.17;;
73980;SDS011;62348;51.412;5.436;2023-07-29T09:03:20;2.42;;;1.42;;
73980;SDS011;62348;51.412;5.436;2023-07-29T09:05:46;5.30;;;1.20;;
73980;SDS011;62348;51.412;5.436;2023-07-29T09:08:12;1.80;;;1.05;;
73980;SDS011;62348;51.412;5.436;2023-07-29T09:10:38;2.33;;;1.02;;
73980;SDS011;62348;51.412;5.436;2023-07-29T09:13:03;2.15;;;0.90;;
73980;SDS011;62348;51.412;5.436;2023-07-29T09:15:31;1.27;;;1.10;;
73980;SDS011;62348;51.412;5.436;2023-07-29T09:17:58;5.88;;;1.25;;
73980;SDS011;62348;51.412;5.436;2023-07-29T09:20:27;1.95;;;0.90;;
73980;SDS011;62348;51.412;5.436;2023-07-29T09:22:54;1.27;;;1.13;;
73980;SDS011;62348;51.412;5.436;2023-07-29T09:25:24;1.42;;;0.90;;
73980;SDS011;62348;51.412;5.436;2023-07-29T09:27:50;1.30;;;1.10;;
73980;SDS011;62348;51.412;5.436;2023-07-29T09:30:16;1.90;;;1.25;;
73980;SDS011;62348;51.412;5.436;2023-07-29T09:32:41;1.88;;;1.67;;
73980;SDS011;62348;51.412;5.436;2023-07-29T09:35:11;1.23;;;1.10;;
73980;SDS011;62348;51.412;5.436;2023-07-29T09:37:37;1.77;;;1.10;;
73980;SDS011;62348;51.412;5.436;2023-07-29T09:40:04;4.47;;;2.03;;
73980;SDS011;62348;51.412;5.436;2023-07-29T09:42:31;1.10;;;0.98;;
73980;SDS011;62348;51.412;5.436;2023-07-29T09:44:56;1.75;;;1.02;;
73980;SDS011;62348;51.412;5.436;2023-07-29T09:47:25;1.83;;;1.30;;
73980;SDS011;62348;51.412;5.436;2023-07-29T09:49:51;5.10;;;2.13;;
73980;SDS011;62348;51.412;5.436;2023-07-29T09:52:18;1.67;;;1.23;;
73980;SDS011;62348;51.412;5.436;2023-07-29T09:54:44;1.20;;;1.10;;
73980;SDS011;62348;51.412;5.436;2023-07-29T09:57:13;1.73;;;1.30;;
73980;SDS011;62348;51.412;5.436;2023-07-29T09:59:39;1.67;;;1.17;;
73980;SDS011;62348;51.412;5.436;2023-07-29T10:02:04;2.97;;;0.95;;
73980;SDS011;62348;51.412;5.436;2023-07-29T10:04:34;2.00;;;1.13;;
73980;SDS011;62348;51.412;5.436;2023-07-29T10:07:00;5.50;;;1.35;;
73980;SDS011;62348;51.412;5.436;2023-07-29T10:09:27;3.20;;;1.73;;
73980;SDS011;62348;51.412;5.436;2023-07-29T10:11:53;2.53;;;1.25;;
73980;SDS011;62348;51.412;5.436;2023-07-29T10:14:20;1.77;;;1.30;;
73980;SDS011;62348;51.412;5.436;2023-07-29T10:16:46;1.70;;;1.30;;
73980;SDS011;62348;51.412;5.436;2023-07-29T10:19:12;2.00;;;1.30;;
73980;SDS011;62348;51.412;5.436;2023-07-29T10:21:39;2.15;;;1.45;;
73980;SDS011;62348;51.412;5.436;2023-07-29T10:24:11;2.63;;;0.98;;
73980;SDS011;62348;51.412;5.436;2023-07-29T10:26:43;1.58;;;1.48;;
73980;SDS011;62348;51.412;5.436;2023-07-29T10:29:12;5.90;;;1.45;;
73980;SDS011;62348;51.412;5.436;2023-07-29T10:31:39;1.50;;;1.25;;
73980;SDS011;62348;51.412;5.436;2023-07-29T10:34:07;1.60;;;1.50;;
73980;SDS011;62348;51.412;5.436;2023-07-29T10:36:33;2.08;;;1.38;;
73980;SDS011;62348;51.412;5.436;2023-07-29T10:39:00;2.25;;;1.13;;
73980;SDS011;62348;51.412;5.436;2023-07-29T10:41:53;1.83;;;1.35;;
73980;SDS011;62348;51.412;5.436;2023-07-29T10:47:11;2.25;;;1.25;;
73980;SDS011;62348;51.412;5.436;2023-07-29T10:49:40;2.65;;;1.38;;
73980;SDS011;62348;51.412;5.436;2023-07-29T10:52:28;2.60;;;1.35;;
73980;SDS011;62348;51.412;5.436;2023-07-29T10:54:53;1.85;;;1.33;;
73980;SDS011;62348;51.412;5.436;2023-07-29T10:57:32;2.03;;;1.50;;
73980;SDS011;62348;51.412;5.436;2023-07-29T10:59:59;1.55;;;1.40;;
73980;SDS011;62348;51.412;5.436;2023-07-29T11:02:29;2.17;;;1.20;;
73980;SDS011;62348;51.412;5.436;2023-07-29T11:04:56;1.35;;;1.02;;
73980;SDS011;62348;51.412;5.436;2023-07-29T11:07:22;2.58;;;1.42;;
73980;SDS011;62348;51.412;5.436;2023-07-29T11:09:52;3.58;;;1.60;;
73980;SDS011;62348;51.412;5.436;2023-07-29T11:15:16;1.35;;;1.25;;
73980;SDS011;62348;51.412;5.436;2023-07-29T11:17:43;3.08;;;1.73;;
73980;SDS011;62348;51.412;5.436;2023-07-29T11:20:09;3.25;;;1.50;;
73980;SDS011;62348;51.412;5.436;2023-07-29T11:22:36;3.05;;;1.55;;
73980;SDS011;62348;51.412;5.436;2023-07-29T11:25:02;1.80;;;1.63;;
73980;SDS011;62348;51.412;5.436;2023-07-29T11:27:28;3.85;;;2.30;;
73980;SDS011;62348;51.412;5.436;2023-07-29T11:29:57;6.05;;;2.45;;
73980;SDS011;62348;51.412;5.436;2023-07-29T11:32:23;4.68;;;2.45;;
73980;SDS011;62348;51.412;5.436;2023-07-29T11:34:50;6.72;;;2.13;;
73980;SDS011;62348;51.412;5.436;2023-07-29T11:37:16;3.35;;;2.38;;
73980;SDS011;62348;51.412;5.436;2023-07-29T11:39:41;2.60;;;1.75;;
73980;SDS011;62348;51.412;5.436;2023-07-29T11:42:10;3.78;;;2.83;;
73980;SDS011;62348;51.412;5.436;2023-07-29T11:44:37;2.40;;;2.20;;
73980;SDS011;62348;51.412;5.436;2023-07-29T11:47:05;2.92;;;2.08;;
73980;SDS011;62348;51.412;5.436;2023-07-29T11:49:34;2.40;;;2.20;;
73980;SDS011;62348;51.412;5.436;2023-07-29T11:52:01;2.65;;;1.80;;
73980;SDS011;62348;51.412;5.436;2023-07-29T11:54:28;5.15;;;1.95;;
73980;SDS011;62348;51.412;5.436;2023-07-29T11:56:54;3.10;;;2.33;;
73980;SDS011;62348;51.412;5.436;2023-07-29T11:59:20;2.97;;;1.70;;
73980;SDS011;62348;51.412;5.436;2023-07-29T12:01:46;2.72;;;1.95;;
73980;SDS011;62348;51.412;5.436;2023-07-29T12:04:11;2.70;;;2.17;;
73980;SDS011;62348;51.412;5.436;2023-07-29T12:06:37;2.92;;;2.60;;
73980;SDS011;62348;51.412;5.436;2023-07-29T12:09:03;6.18;;;2.58;;
73980;SDS011;62348;51.412;5.436;2023-07-29T12:11:29;2.85;;;2.17;;
73980;SDS011;62348;51.412;5.436;2023-07-29T12:13:55;3.72;;;2.28;;
73980;SDS011;62348;51.412;5.436;2023-07-29T12:16:20;3.20;;;2.65;;
73980;SDS011;62348;51.412;5.436;2023-07-29T12:18:46;2.17;;;2.03;;
73980;SDS011;62348;51.412;5.436;2023-07-29T12:21:13;4.35;;;2.58;;
73980;SDS011;62348;51.412;5.436;2023-07-29T12:23:39;6.10;;;2.50;;
73980;SDS011;62348;51.412;5.436;2023-07-29T12:26:05;3.80;;;2.60;;
73980;SDS011;62348;51.412;5.436;2023-07-29T12:28:30;4.30;;;2.65;;
73980;SDS011;62348;51.412;5.436;2023-07-29T12:30:56;3.97;;;3.10;;
73980;SDS011;62348;51.412;5.436;2023-07-29T12:33:37;3.90;;;2.90;;
73980;SDS011;62348;51.412;5.436;2023-07-29T12:36:04;3.23;;;1.77;;
73980;SDS011;62348;51.412;5.436;2023-07-29T12:38:29;4.65;;;1.88;;
73980;SDS011;62348;51.412;5.436;2023-07-29T12:40:55;4.90;;;1.75;;
73980;SDS011;62348;51.412;5.436;2023-07-29T12:43:21;2.67;;;1.27;;
73980;SDS011;62348;51.412;5.436;2023-07-29T12:45:48;1.83;;;1.10;;
73980;SDS011;62348;51.412;5.436;2023-07-29T12:48:14;2.30;;;0.85;;
73980;SDS011;62348;51.412;5.436;2023-07-29T12:50:40;4.18;;;1.13;;
73980;SDS011;62348;51.412;5.436;2023-07-29T12:53:06;4.22;;;1.20;;
73980;SDS011;62348;51.412;5.436;2023-07-29T12:55:33;1.15;;;1.05;;
73980;SDS011;62348;51.412;5.436;2023-07-29T12:57:58;12.75;;;1.85;;
73980;SDS011;62348;51.412;5.436;2023-07-29T13:00:24;1.77;;;1.20;;
73980;SDS011;62348;51.412;5.436;2023-07-29T13:02:50;3.67;;;1.70;;
73980;SDS011;62348;51.412;5.436;2023-07-29T13:05:15;2.40;;;1.27;;
73980;SDS011;62348;51.412;5.436;2023-07-29T13:07:41;2.78;;;1.08;;
73980;SDS011;62348;51.412;5.436;2023-07-29T13:10:07;2.38;;;1.60;;
73980;SDS011;62348;51.412;5.436;2023-07-29T13:12:34;2.90;;;1.30;;
73980;SDS011;62348;51.412;5.436;2023-07-29T13:14:59;1.58;;;1.48;;
73980;SDS011;62348;51.412;5.436;2023-07-29T13:17:25;1.77;;;1.35;;
73980;SDS011;62348;51.412;5.436;2023-07-29T13:19:50;1.52;;;1.42;;
73980;SDS011;62348;51.412;5.436;2023-07-29T13:22:16;2.65;;;1.20;;
73980;SDS011;62348;51.412;5.436;2023-07-29T13:24:42;3.70;;;1.80;;
73980;SDS011;62348;51.412;5.436;2023-07-29T13:27:07;2.22;;;1.77;;
73980;SDS011;62348;51.412;5.436;2023-07-29T13:29:33;1.90;;;1.80;;
73980;SDS011;62348;51.412;5.436;2023-07-29T13:31:58;2.22;;;1.73;;
73980;SDS011;62348;51.412;5.436;2023-07-29T13:34:23;3.45;;;1.67;;
73980;SDS011;62348;51.412;5.436;2023-07-29T13:36:49;3.53;;;2.03;;
73980;SDS011;62348;51.412;5.436;2023-07-29T13:39:15;3.53;;;1.98;;
73980;SDS011;62348;51.412;5.436;2023-07-29T13:41:41;1.80;;;1.70;;
73980;SDS011;62348;51.412;5.436;2023-07-29T13:44:07;2.42;;;2.17;;
73980;SDS011;62348;51.412;5.436;2023-07-29T13:46:32;2.08;;;1.88;;
73980;SDS011;62348;51.412;5.436;2023-07-29T13:48:57;2.42;;;1.98;;
73980;SDS011;62348;51.412;5.436;2023-07-29T13:51:23;3.33;;;1.77;;
73980;SDS011;62348;51.412;5.436;2023-07-29T13:53:48;1.80;;;1.70;;
73980;SDS011;62348;51.412;5.436;2023-07-29T13:56:14;2.92;;;1.95;;
73980;SDS011;62348;51.412;5.436;2023-07-29T13:58:39;2.55;;;2.20;;
73980;SDS011;62348;51.412;5.436;2023-07-29T14:01:05;2.30;;;2.10;;
73980;SDS011;62348;51.412;5.436;2023-07-29T14:03:31;2.67;;;2.10;;
73980;SDS011;62348;51.412;5.436;2023-07-29T14:05:56;2.85;;;2.00;;
73980;SDS011;62348;51.412;5.436;2023-07-29T14:08:22;1.98;;;1.85;;
73980;SDS011;62348;51.412;5.436;2023-07-29T14:10:51;2.08;;;1.88;;
73980;SDS011;62348;51.412;5.436;2023-07-29T14:13:16;2.15;;;1.83;;
73980;SDS011;62348;51.412;5.436;2023-07-29T14:15:42;2.42;;;1.95;;
73980;SDS011;62348;51.412;5.436;2023-07-29T14:18:07;3.05;;;2.25;;
73980;SDS011;62348;51.412;5.436;2023-07-29T14:20:33;2.55;;;2.00;;
73980;SDS011;62348;51.412;5.436;2023-07-29T14:22:58;2.95;;;1.90;;
73980;SDS011;62348;51.412;5.436;2023-07-29T14:25:24;2.22;;;1.73;;
73980;SDS011;62348;51.412;5.436;2023-07-29T14:27:49;2.05;;;1.70;;
73980;SDS011;62348;51.412;5.436;2023-07-29T14:30:15;2.70;;;1.77;;
73980;SDS011;62348;51.412;5.436;2023-07-29T14:32:41;1.80;;;1.70;;
73980;SDS011;62348;51.412;5.436;2023-07-29T14:35:06;1.63;;;1.52;;
73980;SDS011;62348;51.412;5.436;2023-07-29T14:37:33;2.38;;;1.83;;
73980;SDS011;62348;51.412;5.436;2023-07-29T14:39:58;3.58;;;2.00;;
73980;SDS011;62348;51.412;5.436;2023-07-29T14:42:24;2.75;;;1.75;;
73980;SDS011;62348;51.412;5.436;2023-07-29T14:44:50;2.85;;;2.13;;
73980;SDS011;62348;51.412;5.436;2023-07-29T14:47:15;2.25;;;1.88;;
73980;SDS011;62348;51.412;5.436;2023-07-29T14:49:41;3.00;;;1.75;;
73980;SDS011;62348;51.412;5.436;2023-07-29T14:52:06;2.10;;;1.80;;
73980;SDS011;62348;51.412;5.436;2023-07-29T14:54:32;3.55;;;1.58;;
73980;SDS011;62348;51.412;5.436;2023-07-29T14:56:57;1.63;;;1.50;;
73980;SDS011;62348;51.412;5.436;2023-07-29T14:59:23;2.10;;;1.85;;